createdAt,value
2019-02-16T00:01:25.719Z,34.50
2019-02-16T00:03:52.096Z,33.77
2019-02-16T00:06:18.480Z,34.17
2019-02-16T00:08:44.833Z,36.87
2019-02-16T00:11:11.204Z,33.53
2019-02-16T00:13:38.702Z,33.93
2019-02-16T00:16:05.056Z,35.43
2019-02-16T00:18:31.420Z,35.37
2019-02-16T00:21:03.681Z,29.87
2019-02-16T00:23:25.931Z,34.50
2019-02-16T00:25:52.320Z,35.33
2019-02-16T00:28:18.675Z,35.47
2019-02-16T00:30:45.117Z,33.83
2019-02-16T00:33:11.579Z,36.03
2019-02-16T00:35:37.944Z,34.13
2019-02-16T00:38:04.313Z,35.00
2019-02-16T00:40:30.684Z,34.33
2019-02-16T00:42:57.134Z,36.23
2019-02-16T00:45:23.498Z,35.67
2019-02-16T00:47:49.868Z,37.83
2019-02-16T00:50:16.208Z,35.23
2019-02-16T00:52:42.615Z,37.20
2019-02-16T00:55:08.987Z,36.20
2019-02-16T00:57:35.380Z,35.07
2019-02-16T01:00:02.495Z,36.83
2019-02-16T01:02:30.608Z,34.50
2019-02-16T01:04:56.943Z,34.47
2019-02-16T01:07:23.297Z,34.50
2019-02-16T01:09:49.656Z,35.03
2019-02-16T01:12:16.195Z,35.97
2019-02-16T01:14:42.637Z,37.03
2019-02-16T01:17:08.947Z,36.33
2019-02-16T01:19:35.352Z,35.20
2019-02-16T01:22:02.818Z,38.70
2019-02-16T01:24:29.258Z,44.10
2019-02-16T01:26:55.588Z,44.47
2019-02-16T01:29:22.013Z,39.13
2019-02-16T01:31:48.404Z,40.53
2019-02-16T01:34:14.751Z,37.43
2019-02-16T01:36:41.168Z,39.07
2019-02-16T01:39:08.505Z,44.20
2019-02-16T01:41:34.883Z,39.53
2019-02-16T01:44:01.241Z,36.73
2019-02-16T01:46:27.663Z,38.00
2019-02-16T01:48:53.995Z,37.80
2019-02-16T01:51:20.360Z,35.93
2019-02-16T01:53:46.733Z,37.43
2019-02-16T01:56:13.090Z,39.70
2019-02-16T01:58:39.510Z,40.80
2019-02-16T02:01:05.883Z,39.03
2019-02-16T02:03:32.268Z,36.40
2019-02-16T02:06:01.412Z,37.80
2019-02-16T02:08:27.819Z,38.53
2019-02-16T02:10:55.265Z,36.57
2019-02-16T02:13:21.686Z,38.70
2019-02-16T02:15:48.083Z,34.00
2019-02-16T02:18:14.506Z,36.67
2019-02-16T02:20:40.901Z,35.13
2019-02-16T02:23:07.228Z,33.40
2019-02-16T02:25:33.652Z,32.27
2019-02-16T02:27:59.996Z,31.93
2019-02-16T02:30:26.420Z,32.63
2019-02-16T02:32:52.741Z,31.97
2019-02-16T02:35:19.243Z,32.83
2019-02-16T02:37:45.612Z,34.07
2019-02-16T02:40:12.053Z,32.27
2019-02-16T02:42:38.508Z,32.53
2019-02-16T02:45:08.741Z,32.50
2019-02-16T02:47:35.110Z,32.77
2019-02-16T02:50:01.449Z,34.07
2019-02-16T02:52:27.907Z,43.90
2019-02-16T02:54:54.295Z,43.03
2019-02-16T02:57:20.622Z,56.47
2019-02-16T02:59:47.308Z,37.93
2019-02-16T03:02:13.771Z,31.57
2019-02-16T03:04:40.127Z,31.63
2019-02-16T03:07:06.446Z,30.63
2019-02-16T03:09:32.938Z,31.87
2019-02-16T03:11:59.344Z,27.53
2019-02-16T03:14:25.721Z,28.40
2019-02-16T03:16:52.073Z,28.47
2019-02-16T03:19:18.514Z,27.37
2019-02-16T03:21:44.823Z,26.97
2019-02-16T03:24:11.224Z,28.10
2019-02-16T03:26:44.447Z,28.13
2019-02-16T03:29:20.897Z,27.83
2019-02-16T03:32:05.639Z,26.30
2019-02-16T03:34:38.815Z,26.87
2019-02-16T03:37:09.013Z,27.30
2019-02-16T03:39:37.270Z,26.70
2019-02-16T03:42:03.729Z,29.17
2019-02-16T03:44:30.491Z,25.03
2019-02-16T03:46:56.886Z,26.33
2019-02-16T03:49:23.280Z,26.53
2019-02-16T03:51:49.685Z,28.77
2019-02-16T03:54:16.065Z,29.60
2019-02-16T03:56:42.455Z,27.93
2019-02-16T03:59:08.842Z,25.97
2019-02-16T04:01:35.774Z,33.17
2019-02-16T04:04:02.269Z,32.97
2019-02-16T04:06:28.685Z,28.17
2019-02-16T04:08:55.034Z,26.77
2019-02-16T04:11:21.449Z,26.63
2019-02-16T04:13:47.846Z,27.30
2019-02-16T04:16:14.292Z,27.97
2019-02-16T04:18:40.622Z,25.93
2019-02-16T04:21:07.014Z,26.10
2019-02-16T04:23:33.328Z,24.73
2019-02-16T04:25:59.685Z,24.83
2019-02-16T04:28:26.061Z,23.60
2019-02-16T04:30:52.418Z,24.93
2019-02-16T04:33:18.813Z,26.13
2019-02-16T04:35:45.156Z,26.70
2019-02-16T04:38:12.638Z,24.73
2019-02-16T04:40:38.980Z,25.27
2019-02-16T04:43:05.505Z,27.50
2019-02-16T04:45:31.833Z,31.83
2019-02-16T04:47:58.224Z,28.83
2019-02-16T04:50:24.615Z,27.07
2019-02-16T04:52:50.988Z,27.30
2019-02-16T04:55:17.370Z,28.30
2019-02-16T04:57:43.756Z,29.63
2019-02-16T05:00:10.215Z,30.83
2019-02-16T05:02:36.596Z,27.83
2019-02-16T05:05:04.439Z,33.87
2019-02-16T05:07:30.894Z,29.50
2019-02-16T05:09:57.190Z,29.37
2019-02-16T05:12:23.556Z,28.10
2019-02-16T05:14:49.936Z,27.70
2019-02-16T05:17:16.280Z,28.30
2019-02-16T05:19:42.665Z,25.33
2019-02-16T05:22:09.045Z,25.63
2019-02-16T05:24:35.426Z,26.30
2019-02-16T05:27:01.778Z,27.63
2019-02-16T05:29:28.121Z,27.20
2019-02-16T05:31:54.490Z,25.47
2019-02-16T05:34:23.627Z,26.90
2019-02-16T05:36:50.006Z,24.00
2019-02-16T05:39:16.433Z,24.27
2019-02-16T05:41:42.782Z,27.03
2019-02-16T05:44:09.141Z,28.37
2019-02-16T05:46:35.525Z,27.93
2019-02-16T05:49:01.971Z,27.13
2019-02-16T05:51:28.320Z,25.90
2019-02-16T05:53:54.706Z,27.13
2019-02-16T05:56:21.083Z,26.00
2019-02-16T05:58:47.498Z,28.10
2019-02-16T06:01:13.820Z,28.27
2019-02-16T06:03:40.233Z,30.50
2019-02-16T06:06:06.592Z,29.60
2019-02-16T06:08:32.951Z,28.90
2019-02-16T06:10:59.277Z,30.27
2019-02-16T06:13:25.632Z,28.57
2019-02-16T06:15:52.059Z,30.00
2019-02-16T06:18:18.510Z,30.00
2019-02-16T06:20:44.914Z,29.33
2019-02-16T06:23:11.336Z,29.27
2019-02-16T06:25:37.731Z,30.63
2019-02-16T06:28:04.072Z,30.33
2019-02-16T06:30:30.515Z,56.70
2019-02-16T06:32:56.922Z,34.80
2019-02-16T06:35:25.239Z,30.43
2019-02-16T06:37:51.639Z,28.83
2019-02-16T06:40:18.061Z,27.77
2019-02-16T06:42:44.437Z,28.97
2019-02-16T06:45:10.838Z,27.87
2019-02-16T06:47:37.206Z,30.77
2019-02-16T06:50:04.360Z,33.33
2019-02-16T06:52:30.747Z,29.83
2019-02-16T06:54:57.102Z,33.33
2019-02-16T06:57:25.397Z,31.83
2019-02-16T06:59:51.765Z,30.77
2019-02-16T07:02:18.736Z,35.33
2019-02-16T07:04:45.135Z,34.83
2019-02-16T07:07:11.583Z,33.67
2019-02-16T07:09:37.991Z,34.53
2019-02-16T07:12:04.397Z,34.27
2019-02-16T07:14:31.944Z,32.17
2019-02-16T07:17:17.217Z,39.23
2019-02-16T07:19:45.600Z,37.13
2019-02-16T07:22:11.922Z,32.47
2019-02-16T07:24:38.332Z,32.30
2019-02-16T07:27:04.674Z,30.00
2019-02-16T07:29:31.123Z,29.77
2019-02-16T07:31:57.501Z,29.17
2019-02-16T07:34:23.939Z,31.20
2019-02-16T07:36:50.382Z,30.27
2019-02-16T07:39:16.819Z,29.80
2019-02-16T07:41:43.190Z,30.73
2019-02-16T07:44:14.569Z,29.70
2019-02-16T07:46:42.872Z,30.57
2019-02-16T07:49:14.099Z,31.17
2019-02-16T07:51:42.376Z,31.03
2019-02-16T07:54:10.672Z,28.73
2019-02-16T07:56:38.995Z,30.23
2019-02-16T07:59:22.687Z,30.57
2019-02-16T08:01:53.560Z,30.77
2019-02-16T08:04:36.893Z,29.90
2019-02-16T08:07:13.888Z,28.53
2019-02-16T08:09:44.904Z,26.30
2019-02-16T08:12:13.150Z,25.27
2019-02-16T08:14:47.433Z,26.57
2019-02-16T08:17:27.828Z,27.03
2019-02-16T08:20:08.412Z,26.33
2019-02-16T08:22:53.717Z,28.97
2019-02-16T08:25:25.276Z,25.87
2019-02-16T08:27:53.585Z,26.47
2019-02-16T08:30:22.944Z,27.63
2019-02-16T08:32:53.897Z,28.03
2019-02-16T08:35:35.135Z,27.67
2019-02-16T08:38:06.080Z,27.77
2019-02-16T08:40:40.394Z,28.63
2019-02-16T08:43:15.564Z,27.23
2019-02-16T08:45:47.069Z,23.70
2019-02-16T08:48:15.564Z,23.27
2019-02-16T08:51:01.269Z,21.93
2019-02-16T08:53:39.422Z,23.03
2019-02-16T08:56:10.659Z,22.97
2019-02-16T08:58:45.345Z,22.00
2019-02-16T09:01:30.365Z,22.67
2019-02-16T09:04:05.083Z,25.57
2019-02-16T09:06:50.558Z,24.07
2019-02-16T09:09:25.032Z,23.73
2019-02-16T09:11:54.096Z,22.80
2019-02-16T09:14:34.294Z,21.87
2019-02-16T09:17:14.235Z,23.30
2019-02-16T09:19:45.551Z,22.33
2019-02-16T09:22:14.901Z,23.90
2019-02-16T09:24:49.437Z,22.83
2019-02-16T09:27:17.790Z,25.23
2019-02-16T09:29:46.126Z,24.27
2019-02-16T09:32:14.486Z,25.77
2019-02-16T09:34:42.935Z,25.00
2019-02-16T09:37:17.246Z,25.03
2019-02-16T09:39:48.667Z,24.60
2019-02-16T09:42:22.518Z,24.93
2019-02-16T09:44:50.820Z,25.03
2019-02-16T09:47:35.382Z,24.60
2019-02-16T09:50:19.553Z,26.37
2019-02-16T09:52:47.818Z,26.03
2019-02-16T09:55:28.387Z,25.33
2019-02-16T09:58:00.029Z,25.90
2019-02-16T10:00:31.828Z,26.97
2019-02-16T10:03:17.983Z,27.67
2019-02-16T10:05:49.156Z,27.87
2019-02-16T10:08:23.656Z,29.17
2019-02-16T10:10:51.913Z,28.20
2019-02-16T10:13:28.939Z,28.90
2019-02-16T10:16:03.238Z,30.37
2019-02-16T10:18:37.594Z,30.80
2019-02-16T10:21:12.017Z,29.00
2019-02-16T10:23:43.097Z,30.90
2019-02-16T10:26:11.461Z,29.70
2019-02-16T10:28:39.727Z,29.40
2019-02-16T10:31:10.947Z,29.03
2019-02-16T10:33:39.179Z,28.23
2019-02-16T10:36:10.583Z,30.47
2019-02-16T10:38:38.874Z,28.17
2019-02-16T10:41:22.166Z,27.40
2019-02-16T10:43:50.443Z,29.53
2019-02-16T10:46:25.871Z,28.33
2019-02-16T10:48:59.750Z,25.80
2019-02-16T10:51:31.686Z,27.23
2019-02-16T10:54:14.818Z,23.67
2019-02-16T10:56:59.911Z,25.03
2019-02-16T10:59:45.888Z,24.93
2019-02-16T11:02:20.469Z,24.03
2019-02-16T11:05:05.746Z,25.30
2019-02-16T11:07:40.319Z,25.37
2019-02-16T11:10:10.589Z,26.70
2019-02-16T11:12:42.117Z,25.27
2019-02-16T11:15:12.463Z,24.27
2019-02-16T11:17:57.531Z,23.60
2019-02-16T11:20:26.140Z,23.90
2019-02-16T11:23:10.947Z,21.33
2019-02-16T11:25:39.290Z,23.60
2019-02-16T11:28:25.980Z,22.13
2019-02-16T11:31:10.755Z,22.20
2019-02-16T11:33:42.195Z,21.47
2019-02-16T11:36:10.925Z,22.37
2019-02-16T11:38:39.310Z,21.03
2019-02-16T11:41:18.605Z,21.37
2019-02-16T11:43:57.095Z,21.70
2019-02-16T11:46:28.669Z,19.37
2019-02-16T11:48:56.966Z,20.10
2019-02-16T11:51:31.337Z,21.07
2019-02-16T11:54:02.453Z,19.93
2019-02-16T11:56:39.582Z,19.00
2019-02-16T11:59:14.008Z,19.67
2019-02-16T12:01:51.860Z,18.47
2019-02-16T12:04:20.445Z,16.87
2019-02-16T12:06:54.888Z,16.97
2019-02-16T12:09:23.280Z,17.40
2019-02-16T12:11:52.211Z,18.10
2019-02-16T12:14:26.284Z,15.60
2019-02-16T12:16:55.503Z,16.07
2019-02-16T12:19:30.181Z,13.83
2019-02-16T12:22:08.041Z,14.97
2019-02-16T12:24:36.474Z,16.00
2019-02-16T12:27:05.752Z,15.23
2019-02-16T12:29:40.410Z,16.67
2019-02-16T12:32:20.581Z,15.47
2019-02-16T12:35:00.996Z,14.03
2019-02-16T12:37:32.496Z,15.10
2019-02-16T12:40:09.987Z,15.53
2019-02-16T12:42:39.525Z,16.80
2019-02-16T12:45:21.273Z,16.77
2019-02-16T12:47:49.689Z,16.47
2019-02-16T12:50:20.873Z,15.27
2019-02-16T12:52:55.204Z,15.70
2019-02-16T12:55:32.294Z,15.03
2019-02-16T12:58:10.074Z,14.70
2019-02-16T13:00:41.953Z,15.20
2019-02-16T13:03:13.357Z,15.80
2019-02-16T13:05:54.275Z,15.00
2019-02-16T13:08:26.018Z,15.77
2019-02-16T13:10:54.831Z,16.23
2019-02-16T13:13:29.939Z,15.50
2019-02-16T13:15:59.090Z,16.57
2019-02-16T13:18:37.157Z,15.07
2019-02-16T13:21:11.381Z,15.80
2019-02-16T13:23:48.835Z,15.03
2019-02-16T13:26:19.999Z,16.13
2019-02-16T13:29:04.211Z,14.57
2019-02-16T13:31:47.729Z,15.60
2019-02-16T13:34:22.082Z,15.07
2019-02-16T13:36:59.238Z,14.90
2019-02-16T13:39:27.896Z,15.10
2019-02-16T13:41:59.259Z,14.10
2019-02-16T13:44:36.394Z,15.03
2019-02-16T13:47:04.676Z,14.57
2019-02-16T13:49:33.147Z,15.83
2019-02-16T13:52:18.017Z,16.33
2019-02-16T13:54:46.809Z,17.03
2019-02-16T13:57:31.732Z,17.47
2019-02-16T14:00:09.630Z,17.80
2019-02-16T14:02:40.820Z,17.83
2019-02-16T14:05:09.113Z,18.53
2019-02-16T14:07:49.308Z,18.23
2019-02-16T14:10:17.721Z,19.30
2019-02-16T14:12:45.974Z,17.07
2019-02-16T14:15:23.221Z,19.00
2019-02-16T14:17:51.568Z,18.47
2019-02-16T14:20:17.868Z,18.60
2019-02-16T14:22:44.319Z,18.93
2019-02-16T14:25:13.636Z,20.23
2019-02-16T14:27:40.081Z,21.07
2019-02-16T14:30:09.478Z,19.63
2019-02-16T14:32:35.878Z,19.33
2019-02-16T14:35:03.462Z,20.37
2019-02-16T14:37:34.479Z,34.83
2019-02-16T14:40:00.869Z,27.17
2019-02-16T14:42:27.221Z,21.07
2019-02-16T14:44:53.580Z,23.43
2019-02-16T14:47:19.938Z,23.83
2019-02-16T14:49:46.313Z,21.90
2019-02-16T14:52:12.726Z,21.03
2019-02-16T14:54:39.116Z,20.90
2019-02-16T14:57:05.539Z,21.40
2019-02-16T14:59:31.913Z,20.03
2019-02-16T15:01:58.322Z,21.70
2019-02-16T15:04:24.675Z,20.37
2019-02-16T15:06:51.152Z,19.73
2019-02-16T15:09:17.567Z,21.60
2019-02-16T15:11:43.992Z,19.60
2019-02-16T15:14:10.341Z,19.60
2019-02-16T15:16:36.782Z,18.97
2019-02-16T15:19:03.192Z,20.97
2019-02-16T15:21:29.610Z,20.27
2019-02-16T15:23:55.982Z,26.90
2019-02-16T15:26:28.404Z,23.60
2019-02-16T15:28:50.535Z,24.93
2019-02-16T15:31:17.014Z,24.33
2019-02-16T15:33:43.440Z,21.93
2019-02-16T15:36:09.853Z,21.33
2019-02-16T15:38:36.264Z,24.70
2019-02-16T15:41:02.725Z,25.17
2019-02-16T15:43:29.125Z,25.27
2019-02-16T15:45:55.486Z,25.03
2019-02-16T15:48:21.919Z,27.13
2019-02-16T15:50:48.242Z,30.80
2019-02-16T15:53:14.695Z,28.50
2019-02-16T15:55:41.019Z,29.93
2019-02-16T15:58:07.510Z,25.97
2019-02-16T16:00:33.904Z,30.80
2019-02-16T16:03:00.248Z,29.90
2019-02-16T16:05:26.760Z,30.73
2019-02-16T16:08:11.590Z,32.90
2019-02-16T16:10:39.876Z,32.73
2019-02-16T16:13:17.065Z,33.60
2019-02-16T16:15:52.436Z,31.20
2019-02-16T16:18:32.365Z,30.13
2019-02-16T16:21:18.757Z,30.93
2019-02-16T16:23:58.741Z,39.83
2019-02-16T16:26:45.368Z,34.57
2019-02-16T16:29:19.334Z,31.70
2019-02-16T16:31:53.341Z,33.10
2019-02-16T16:34:21.635Z,47.13
2019-02-16T16:37:08.403Z,48.27
2019-02-16T16:39:52.096Z,36.27
2019-02-16T16:42:25.915Z,31.60
2019-02-16T16:45:09.127Z,39.50
2019-02-16T16:47:55.624Z,36.97
2019-02-16T16:50:40.776Z,34.40
2019-02-16T16:53:11.706Z,33.17
2019-02-16T16:55:48.741Z,31.87
2019-02-16T16:58:17.051Z,30.23
2019-02-16T17:01:03.791Z,29.30
2019-02-16T17:03:44.427Z,28.53
2019-02-16T17:06:29.168Z,35.13
2019-02-16T17:09:00.040Z,33.67
2019-02-16T17:11:43.464Z,28.13
2019-02-16T17:14:14.611Z,27.93
2019-02-16T17:16:55.000Z,25.77
2019-02-16T17:19:26.409Z,27.70
2019-02-16T17:22:01.347Z,26.60
2019-02-16T17:24:35.770Z,26.53
2019-02-16T17:27:04.040Z,30.43
2019-02-16T17:29:32.572Z,30.10
2019-02-16T17:32:06.991Z,28.93
2019-02-16T17:34:35.356Z,29.17
2019-02-16T17:37:20.572Z,29.83
2019-02-16T17:39:48.893Z,26.97
2019-02-16T17:42:26.235Z,24.50
2019-02-16T17:44:54.810Z,27.63
2019-02-16T17:47:26.347Z,24.33
2019-02-16T17:49:57.733Z,23.93
2019-02-16T17:52:42.909Z,22.93
2019-02-16T17:55:20.051Z,32.00
2019-02-16T17:57:48.315Z,31.20
2019-02-16T18:00:33.010Z,30.50
2019-02-16T18:03:04.391Z,35.33
2019-02-16T18:05:49.501Z,33.17
2019-02-16T18:08:17.722Z,33.80
2019-02-16T18:10:49.432Z,35.83
2019-02-16T18:13:20.593Z,40.60
2019-02-16T18:15:49.074Z,37.57
2019-02-16T18:18:17.507Z,26.67
2019-02-16T18:20:46.513Z,27.97
2019-02-16T18:23:14.873Z,24.73
2019-02-16T18:25:43.458Z,23.00
2019-02-16T18:28:24.298Z,22.13
2019-02-16T18:30:58.750Z,21.60
2019-02-16T18:33:31.734Z,23.13
2019-02-16T18:36:03.236Z,23.73
2019-02-16T18:38:32.015Z,21.30
2019-02-16T18:41:12.537Z,21.10
2019-02-16T18:43:43.941Z,21.73
2019-02-16T18:46:21.271Z,22.10
2019-02-16T18:48:49.627Z,23.83
2019-02-16T18:51:21.137Z,22.97
2019-02-16T18:54:01.792Z,23.10
2019-02-16T18:56:32.936Z,25.10
2019-02-16T18:59:04.465Z,25.80
2019-02-16T19:01:51.462Z,28.30
2019-02-16T19:04:34.597Z,26.63
2019-02-16T19:07:09.059Z,26.43
2019-02-16T19:09:49.113Z,26.23
2019-02-16T19:12:32.739Z,25.33
2019-02-16T19:15:09.768Z,26.40
2019-02-16T19:17:44.036Z,25.93
2019-02-16T19:20:14.864Z,26.83
2019-02-16T19:22:43.134Z,26.27
2019-02-16T19:25:29.617Z,23.83
2019-02-16T19:28:12.766Z,25.33
2019-02-16T19:30:44.254Z,25.00
2019-02-16T19:33:14.558Z,25.97
2019-02-16T19:35:42.714Z,24.10
2019-02-16T19:38:10.941Z,25.27
2019-02-16T19:40:39.314Z,25.73
2019-02-16T19:43:10.347Z,26.57
2019-02-16T19:45:44.782Z,30.33
2019-02-16T19:48:21.613Z,29.63
2019-02-16T19:50:58.577Z,31.33
2019-02-16T19:53:43.681Z,32.47
2019-02-16T19:56:18.835Z,28.37
2019-02-16T19:58:49.616Z,28.03
2019-02-16T20:01:20.782Z,27.97
2019-02-16T20:03:52.193Z,29.40
2019-02-16T20:06:36.921Z,28.03
2019-02-16T20:09:13.548Z,28.77
2019-02-16T20:11:50.458Z,27.80
2019-02-16T20:14:35.487Z,28.73
2019-02-16T20:17:06.636Z,26.87
2019-02-16T20:19:51.857Z,28.73
2019-02-16T20:22:23.282Z,25.63
2019-02-16T20:24:57.309Z,27.83
2019-02-16T20:27:25.612Z,30.73
2019-02-16T20:30:02.532Z,30.63
2019-02-16T20:32:36.805Z,30.53
2019-02-16T20:35:11.142Z,29.47
2019-02-16T20:37:57.404Z,27.50
2019-02-16T20:40:42.005Z,26.30
2019-02-16T20:43:10.282Z,31.40
2019-02-16T20:45:38.598Z,33.10
2019-02-16T20:48:22.150Z,29.00
2019-02-16T20:50:52.924Z,28.97
2019-02-16T20:53:21.201Z,26.90
2019-02-16T20:55:52.293Z,28.13
2019-02-16T20:58:26.366Z,28.47
2019-02-16T21:00:54.660Z,27.33
2019-02-16T21:03:22.951Z,28.47
2019-02-16T21:06:00.070Z,27.20
2019-02-16T21:08:28.330Z,30.93
2019-02-16T21:10:56.647Z,30.57
2019-02-16T21:13:27.647Z,41.17
2019-02-16T21:16:04.925Z,49.00
2019-02-16T21:18:39.418Z,41.57
2019-02-16T21:21:10.966Z,48.77
2019-02-16T21:23:39.346Z,55.47
2019-02-16T21:26:22.465Z,62.93
2019-02-16T21:29:07.194Z,53.40
2019-02-16T21:31:36.149Z,47.30
2019-02-16T21:34:16.713Z,43.33
2019-02-16T21:36:48.069Z,35.80
2019-02-16T21:39:34.972Z,32.13
2019-02-16T21:42:12.113Z,28.47
2019-02-16T21:44:44.248Z,29.87
2019-02-16T21:47:29.497Z,28.93
2019-02-16T21:50:04.592Z,28.87
2019-02-16T21:52:50.032Z,32.13
2019-02-16T21:55:35.566Z,26.73
2019-02-16T21:58:19.394Z,29.47
2019-02-16T22:00:54.093Z,30.53
2019-02-16T22:03:34.474Z,32.17
2019-02-16T22:06:19.803Z,31.73
2019-02-16T22:08:48.626Z,33.93
2019-02-16T22:11:35.503Z,35.50
2019-02-16T22:14:01.968Z,43.80
2019-02-16T22:16:29.403Z,67.77
2019-02-16T22:18:55.826Z,67.77
2019-02-16T22:21:22.271Z,95.90
2019-02-16T22:23:48.714Z,94.40
2019-02-16T22:26:15.084Z,97.63
2019-02-16T22:28:41.451Z,73.17
2019-02-16T22:31:08.935Z,85.87
2019-02-16T22:33:35.295Z,68.23
2019-02-16T22:36:01.658Z,89.83
2019-02-16T22:38:28.034Z,67.07
2019-02-16T22:40:54.455Z,82.17
2019-02-16T22:43:20.854Z,82.13
2019-02-16T22:45:47.251Z,85.40
2019-02-16T22:48:13.643Z,82.03
2019-02-16T22:50:40.081Z,74.07
2019-02-16T22:53:06.461Z,56.60
2019-02-16T22:55:32.798Z,57.20
2019-02-16T22:57:59.211Z,61.00
2019-02-16T23:00:37.463Z,73.17
2019-02-16T23:03:06.111Z,71.23
2019-02-16T23:05:32.581Z,76.80
2019-02-16T23:07:59.557Z,75.93
2019-02-16T23:10:26.060Z,75.03
2019-02-16T23:12:52.390Z,77.70
2019-02-16T23:15:20.282Z,69.67
2019-02-16T23:17:46.901Z,72.30
2019-02-16T23:20:13.232Z,69.30
2019-02-16T23:22:39.664Z,74.53
2019-02-16T23:25:07.282Z,70.13
2019-02-16T23:27:33.774Z,62.73
2019-02-16T23:30:00.382Z,36.27
2019-02-16T23:32:26.772Z,35.53
2019-02-16T23:34:53.151Z,36.27
2019-02-16T23:37:19.484Z,31.13
2019-02-16T23:39:45.888Z,31.37
2019-02-16T23:42:12.237Z,35.53
2019-02-16T23:44:38.624Z,34.93
2019-02-16T23:47:05.060Z,38.73
2019-02-16T23:49:31.506Z,52.53
2019-02-16T23:51:57.861Z,50.73
2019-02-16T23:54:24.340Z,33.20
2019-02-16T23:56:50.657Z,27.23
2019-02-16T23:59:17.094Z,26.07
